createdAt,value
2022-12-17T00:00:44.674Z,21.48
2022-12-17T00:03:31.041Z,20.48
2022-12-17T00:06:17.163Z,20.60
2022-12-17T00:09:03.173Z,20.83
2022-12-17T00:11:49.643Z,20.65
2022-12-17T00:14:35.613Z,20.20
2022-12-17T00:17:21.915Z,20.05
2022-12-17T00:20:08.017Z,19.02
2022-12-17T00:22:54.157Z,20.67
2022-12-17T00:25:40.511Z,21.58
2022-12-17T00:28:30.715Z,20.73
2022-12-17T00:31:17.162Z,18.73
2022-12-17T00:34:03.083Z,20.90
2022-12-17T00:36:49.652Z,20.35
2022-12-17T00:39:35.664Z,20.45
2022-12-17T00:42:22.150Z,19.33
2022-12-17T00:45:08.366Z,19.35
2022-12-17T00:47:54.242Z,19.13
2022-12-17T00:50:40.295Z,18.25
2022-12-17T00:53:26.767Z,19.35
2022-12-17T00:56:12.677Z,18.63
2022-12-17T00:58:59.141Z,18.90
2022-12-17T01:01:45.717Z,18.35
2022-12-17T01:04:32.182Z,19.25
2022-12-17T01:07:18.643Z,19.10
2022-12-17T01:10:05.042Z,19.15
2022-12-17T01:12:51.283Z,20.25
2022-12-17T01:15:38.176Z,18.85
2022-12-17T01:18:24.788Z,17.60
2022-12-17T01:21:15.772Z,18.25
2022-12-17T01:24:01.915Z,18.10
2022-12-17T01:26:47.885Z,16.80
2022-12-17T01:29:34.116Z,15.95
2022-12-17T01:32:20.315Z,17.77
2022-12-17T01:35:06.725Z,17.25
2022-12-17T01:37:52.746Z,16.63
2022-12-17T01:40:39.113Z,18.17
2022-12-17T01:43:29.555Z,17.55
2022-12-17T01:46:15.940Z,17.83
2022-12-17T01:49:04.452Z,18.23
2022-12-17T01:51:51.225Z,19.27
2022-12-17T01:54:38.633Z,16.65
2022-12-17T01:57:26.056Z,16.35
2022-12-17T02:00:14.863Z,19.35
2022-12-17T02:03:01.813Z,17.05
2022-12-17T02:05:54.192Z,15.55
2022-12-17T02:08:49.433Z,17.50
2022-12-17T02:11:39.695Z,17.52
2022-12-17T02:14:43.373Z,17.13
2022-12-17T02:17:31.223Z,18.40
2022-12-17T02:20:17.563Z,16.30
2022-12-17T02:23:16.123Z,17.85
2022-12-17T02:26:11.465Z,18.92
2022-12-17T02:28:58.705Z,17.40
2022-12-17T02:31:45.279Z,20.05
2022-12-17T02:34:31.883Z,17.55
2022-12-17T02:37:18.213Z,17.42
2022-12-17T02:40:04.483Z,17.33
2022-12-17T02:42:51.393Z,18.25
2022-12-17T02:45:38.298Z,18.73
2022-12-17T02:48:26.335Z,18.98
2022-12-17T02:51:12.666Z,17.83
2022-12-17T02:54:22.183Z,19.58
2022-12-17T02:57:08.763Z,20.27
2022-12-17T02:59:55.086Z,19.30
2022-12-17T03:02:43.337Z,20.13
2022-12-17T03:05:45.167Z,19.45
2022-12-17T03:08:31.815Z,18.67
2022-12-17T03:11:17.922Z,20.17
2022-12-17T03:14:17.864Z,20.05
2022-12-17T03:17:04.326Z,21.13
2022-12-17T03:19:50.552Z,19.42
2022-12-17T03:22:36.455Z,18.88
2022-12-17T03:25:22.686Z,17.90
2022-12-17T03:28:08.936Z,18.60
2022-12-17T03:30:55.411Z,18.42
2022-12-17T03:33:41.355Z,17.48
2022-12-17T03:36:27.816Z,19.75
2022-12-17T03:39:14.087Z,18.05
2022-12-17T03:42:00.003Z,18.83
2022-12-17T03:44:46.262Z,19.42
2022-12-17T03:47:32.133Z,19.15
2022-12-17T03:50:18.432Z,21.00
2022-12-17T03:53:04.693Z,20.45
2022-12-17T03:55:50.813Z,19.10
2022-12-17T03:58:36.837Z,20.40
2022-12-17T04:01:23.329Z,18.20
2022-12-17T04:04:09.472Z,19.30
2022-12-17T04:06:55.986Z,19.20
2022-12-17T04:09:42.062Z,20.05
2022-12-17T04:12:28.422Z,19.73
2022-12-17T04:15:14.345Z,17.45
2022-12-17T04:18:00.506Z,18.15
2022-12-17T04:20:47.081Z,19.98
2022-12-17T04:23:33.115Z,19.90
2022-12-17T04:26:19.893Z,19.25
2022-12-17T04:29:06.005Z,19.30
2022-12-17T04:31:52.590Z,20.52
2022-12-17T04:34:38.666Z,20.25
2022-12-17T04:37:25.036Z,20.92
2022-12-17T04:40:11.252Z,20.23
2022-12-17T04:42:57.482Z,18.23
2022-12-17T04:45:43.847Z,17.33
2022-12-17T04:48:29.963Z,19.55
2022-12-17T04:51:16.104Z,19.98
2022-12-17T04:54:02.272Z,18.90
2022-12-17T04:56:48.376Z,21.48
2022-12-17T04:59:34.786Z,20.65
2022-12-17T05:02:21.119Z,19.55
2022-12-17T05:05:07.472Z,20.33
2022-12-17T05:07:53.732Z,18.25
2022-12-17T05:10:39.932Z,20.35
2022-12-17T05:13:26.300Z,20.35
2022-12-17T05:16:15.293Z,20.25
2022-12-17T05:19:01.619Z,19.92
2022-12-17T05:21:47.909Z,19.52
2022-12-17T05:24:34.122Z,20.77
2022-12-17T05:27:20.259Z,19.98
2022-12-17T05:30:06.355Z,19.20
2022-12-17T05:32:52.675Z,20.70
2022-12-17T05:35:38.985Z,21.20
2022-12-17T05:38:25.895Z,20.77
2022-12-17T05:41:12.332Z,22.02
2022-12-17T05:43:58.565Z,21.63
2022-12-17T05:46:44.820Z,20.55
2022-12-17T05:49:31.153Z,20.98
2022-12-17T05:52:17.385Z,21.05
2022-12-17T05:55:03.766Z,22.45
2022-12-17T05:57:54.690Z,21.48
2022-12-17T06:00:44.054Z,21.63
2022-12-17T06:03:30.390Z,19.77
2022-12-17T06:06:16.775Z,21.33
2022-12-17T06:09:03.200Z,20.63
2022-12-17T06:11:49.566Z,20.23
2022-12-17T06:14:35.612Z,19.05
2022-12-17T06:17:21.982Z,20.50
2022-12-17T06:20:07.782Z,19.60
2022-12-17T06:22:53.912Z,19.50
2022-12-17T06:25:39.752Z,20.77
2022-12-17T06:28:26.253Z,19.73
2022-12-17T06:31:13.945Z,19.95
2022-12-17T06:34:00.435Z,19.73
2022-12-17T06:36:46.817Z,20.25
2022-12-17T06:39:33.260Z,20.25
2022-12-17T06:42:19.307Z,17.92
2022-12-17T06:45:05.943Z,17.45
2022-12-17T06:47:52.212Z,20.25
2022-12-17T06:50:38.082Z,19.63
2022-12-17T06:53:25.704Z,19.77
2022-12-17T06:56:12.004Z,19.88
2022-12-17T06:58:58.274Z,21.48
2022-12-17T07:01:44.733Z,22.25
2022-12-17T07:04:30.820Z,19.17
2022-12-17T07:07:17.430Z,20.95
2022-12-17T07:10:06.848Z,20.00
2022-12-17T07:12:55.947Z,19.30
2022-12-17T07:15:42.176Z,20.52
2022-12-17T07:18:28.382Z,20.42
2022-12-17T07:21:14.679Z,20.25
2022-12-17T07:24:00.943Z,21.50
2022-12-17T07:26:47.083Z,20.13
2022-12-17T07:29:33.403Z,21.45
2022-12-17T07:32:19.338Z,18.50
2022-12-17T07:35:05.666Z,17.73
2022-12-17T07:37:52.136Z,20.23
2022-12-17T07:40:38.296Z,21.17
2022-12-17T07:43:33.994Z,20.80
2022-12-17T07:46:20.325Z,22.88
2022-12-17T07:49:06.836Z,21.23
2022-12-17T07:51:53.266Z,20.67
2022-12-17T07:54:39.245Z,21.42
2022-12-17T07:57:26.598Z,19.98
2022-12-17T08:00:12.807Z,20.95
2022-12-17T08:02:59.079Z,22.30
2022-12-17T08:05:45.002Z,20.88
2022-12-17T08:08:32.224Z,22.38
2022-12-17T08:11:18.539Z,22.55
2022-12-17T08:14:04.771Z,22.40
2022-12-17T08:16:51.175Z,20.73
2022-12-17T08:19:38.507Z,22.17
2022-12-17T08:22:24.827Z,23.77
2022-12-17T08:25:10.810Z,23.70
2022-12-17T08:27:57.308Z,21.75
2022-12-17T08:30:43.974Z,23.88
2022-12-17T08:33:29.885Z,24.23
2022-12-17T08:36:17.567Z,22.48
2022-12-17T08:39:05.383Z,21.42
2022-12-17T08:41:55.338Z,21.65
2022-12-17T08:44:42.466Z,22.08
2022-12-17T08:47:28.684Z,22.05
2022-12-17T08:50:15.121Z,22.33
2022-12-17T08:53:01.433Z,22.25
2022-12-17T08:55:47.853Z,17.55
2022-12-17T08:58:34.166Z,22.00
2022-12-17T09:01:20.549Z,22.05
2022-12-17T09:04:07.008Z,21.90
2022-12-17T09:06:53.243Z,23.42
2022-12-17T09:09:39.505Z,23.27
2022-12-17T09:12:25.762Z,24.00
2022-12-17T09:15:11.913Z,21.75
2022-12-17T09:17:57.994Z,23.95
2022-12-17T09:20:44.405Z,23.75
2022-12-17T09:23:34.559Z,23.77
2022-12-17T09:26:21.210Z,23.75
2022-12-17T09:29:07.471Z,24.60
2022-12-17T09:31:53.880Z,24.08
2022-12-17T09:34:39.948Z,23.00
2022-12-17T09:37:26.422Z,21.67
2022-12-17T09:40:12.475Z,21.67
2022-12-17T09:43:03.825Z,26.60
2022-12-17T09:45:57.287Z,23.75
2022-12-17T09:48:43.576Z,24.15
2022-12-17T09:51:39.273Z,23.33
2022-12-17T09:54:26.426Z,24.20
2022-12-17T09:57:12.836Z,24.20
2022-12-17T09:59:59.223Z,23.60
2022-12-17T10:02:50.562Z,25.08
2022-12-17T10:05:45.189Z,23.15
2022-12-17T10:08:32.885Z,24.27
2022-12-17T10:11:34.183Z,24.27
2022-12-17T10:14:21.061Z,23.88
2022-12-17T10:17:11.642Z,18.92
2022-12-17T10:19:59.863Z,23.95
2022-12-17T10:22:46.204Z,25.45
2022-12-17T10:25:40.232Z,24.88
2022-12-17T10:28:27.635Z,24.92
2022-12-17T10:31:14.400Z,25.48
2022-12-17T10:34:00.955Z,25.42
2022-12-17T10:36:48.531Z,24.70
2022-12-17T10:39:36.152Z,25.80
2022-12-17T10:42:22.412Z,24.45
2022-12-17T10:45:08.703Z,25.90
2022-12-17T10:47:54.845Z,23.02
2022-12-17T10:50:42.226Z,22.80
2022-12-17T10:53:42.436Z,25.98
2022-12-17T10:56:39.622Z,25.92
2022-12-17T10:59:31.346Z,26.17
2022-12-17T11:02:18.422Z,26.92
2022-12-17T11:05:13.985Z,25.17
2022-12-17T11:08:02.127Z,24.80
2022-12-17T11:10:50.165Z,27.40
2022-12-17T11:13:39.654Z,27.48
2022-12-17T11:16:31.857Z,27.42
2022-12-17T11:19:20.713Z,25.90
2022-12-17T11:22:16.653Z,24.20
2022-12-17T11:25:15.080Z,24.80
2022-12-17T11:28:03.765Z,28.75
2022-12-17T11:30:50.327Z,27.70
2022-12-17T11:33:39.690Z,23.83
2022-12-17T11:36:38.247Z,26.63
2022-12-17T11:39:37.153Z,25.92
2022-12-17T11:42:31.995Z,26.67
2022-12-17T11:45:43.092Z,25.02
2022-12-17T11:48:41.241Z,26.05
2022-12-17T11:51:46.113Z,25.73
2022-12-17T11:57:26.880Z,26.42
2022-12-17T12:00:24.553Z,24.55
2022-12-17T12:03:16.862Z,28.63
2022-12-17T12:06:03.127Z,24.77
2022-12-17T12:08:58.302Z,25.60
2022-12-17T12:11:53.573Z,26.15
2022-12-17T12:14:51.943Z,25.08
2022-12-17T12:17:38.500Z,28.63
2022-12-17T12:20:39.993Z,24.80
2022-12-17T12:23:44.021Z,25.17
2022-12-17T12:26:35.284Z,26.67
2022-12-17T12:29:21.676Z,26.13
2022-12-17T12:32:18.662Z,25.15
2022-12-17T12:35:05.722Z,25.00
2022-12-17T12:37:53.142Z,26.02
2022-12-17T12:40:42.141Z,23.60
2022-12-17T12:43:35.402Z,24.10
2022-12-17T12:46:30.772Z,23.75
2022-12-17T12:49:36.975Z,24.20
2022-12-17T12:52:23.563Z,23.83
2022-12-17T12:55:11.267Z,25.77
2022-12-17T12:58:00.186Z,24.25
2022-12-17T13:00:49.190Z,24.90
2022-12-17T13:03:44.317Z,25.92
2022-12-17T13:06:12.840Z,25.95
2022-12-17T13:08:41.117Z,22.40
2022-12-17T13:11:13.746Z,24.40
2022-12-17T13:13:56.238Z,23.65
2022-12-17T13:16:32.277Z,23.73
2022-12-17T13:19:19.382Z,23.98
2022-12-17T13:21:47.672Z,23.42
2022-12-17T13:24:25.912Z,25.33
2022-12-17T13:26:53.867Z,25.00
2022-12-17T13:29:35.155Z,22.65
2022-12-17T13:32:03.289Z,23.10
2022-12-17T13:34:45.423Z,24.55
2022-12-17T13:37:20.253Z,25.13
2022-12-17T13:39:47.565Z,24.85
2022-12-17T13:42:18.206Z,25.42
2022-12-17T13:44:47.025Z,23.48
2022-12-17T13:47:43.564Z,23.90
2022-12-17T13:50:33.749Z,23.80
2022-12-17T13:53:09.592Z,24.42
2022-12-17T13:55:37.388Z,25.60
2022-12-17T13:58:04.773Z,26.77
2022-12-17T14:00:32.760Z,28.25
2022-12-17T14:03:10.875Z,27.35
2022-12-17T14:05:40.425Z,27.48
2022-12-17T14:08:07.903Z,27.20
2022-12-17T14:10:35.377Z,26.48
2022-12-17T14:13:07.880Z,27.20
2022-12-17T14:15:36.065Z,24.33
2022-12-17T14:18:03.811Z,25.92
2022-12-17T14:20:32.738Z,25.60
2022-12-17T14:23:20.993Z,24.45
2022-12-17T14:25:49.268Z,24.08
2022-12-17T14:28:30.687Z,24.50
2022-12-17T14:31:30.360Z,24.00
2022-12-17T14:34:02.093Z,23.67
2022-12-17T14:36:30.316Z,23.33
2022-12-17T14:39:01.661Z,23.00
2022-12-17T14:41:48.555Z,21.63
2022-12-17T14:44:27.356Z,21.95
2022-12-17T14:47:07.900Z,22.25
2022-12-17T14:49:35.967Z,21.55
2022-12-17T14:52:13.331Z,20.98
2022-12-17T14:54:46.862Z,21.25
2022-12-17T14:57:24.115Z,22.25
2022-12-17T14:59:52.729Z,22.80
2022-12-17T15:02:28.367Z,22.58
2022-12-17T15:05:00.292Z,22.75
2022-12-17T15:07:28.633Z,22.10
2022-12-17T15:09:56.612Z,23.02
2022-12-17T15:12:24.955Z,22.63
2022-12-17T15:14:52.652Z,21.35
2022-12-17T15:17:20.002Z,22.50
2022-12-17T15:19:54.174Z,22.60
2022-12-17T15:22:23.322Z,21.77
2022-12-17T15:24:50.836Z,21.77
2022-12-17T15:27:18.502Z,21.45
2022-12-17T15:29:46.233Z,24.27
2022-12-17T15:32:23.485Z,23.13
2022-12-17T15:34:51.152Z,23.33
2022-12-17T15:37:25.292Z,22.25
2022-12-17T15:39:53.258Z,21.27
2022-12-17T15:42:39.285Z,23.83
2022-12-17T15:45:07.105Z,23.00
2022-12-17T15:47:34.658Z,24.15
2022-12-17T15:50:02.457Z,26.13
2022-12-17T15:52:29.952Z,26.73
2022-12-17T15:54:57.423Z,24.52
2022-12-17T15:57:25.030Z,27.75
2022-12-17T15:59:53.303Z,27.63
2022-12-17T16:02:21.059Z,27.85
2022-12-17T16:04:48.548Z,29.73
2022-12-17T16:07:16.625Z,33.20
2022-12-17T16:09:44.302Z,37.95
2022-12-17T16:12:13.145Z,39.20
2022-12-17T16:14:40.683Z,39.65
2022-12-17T16:17:09.056Z,34.97
2022-12-17T16:19:36.576Z,32.88
2022-12-17T16:22:04.451Z,28.83
2022-12-17T16:24:32.193Z,27.38
2022-12-17T16:27:04.345Z,25.77
2022-12-17T16:29:32.433Z,24.90
2022-12-17T16:32:00.472Z,25.08
2022-12-17T16:34:28.026Z,26.52
2022-12-17T16:36:55.833Z,25.10
2022-12-17T16:39:23.295Z,25.55
2022-12-17T16:41:50.859Z,25.33
2022-12-17T16:44:18.642Z,32.00
2022-12-17T16:46:49.307Z,33.85
2022-12-17T16:49:18.370Z,33.08
2022-12-17T16:51:46.513Z,31.65
2022-12-17T16:54:18.176Z,34.05
2022-12-17T16:56:46.766Z,34.33
2022-12-17T16:59:15.125Z,32.95
2022-12-17T17:01:45.426Z,37.13
2022-12-17T17:04:14.045Z,37.88
2022-12-17T17:06:42.430Z,40.33
2022-12-17T17:09:10.182Z,35.58
2022-12-17T17:11:37.682Z,37.13
2022-12-17T17:14:06.103Z,35.97
2022-12-17T17:16:34.487Z,29.90
2022-12-17T17:19:02.113Z,31.48
2022-12-17T17:21:31.263Z,31.50
2022-12-17T17:24:00.026Z,31.50
2022-12-17T17:26:27.900Z,36.63
2022-12-17T17:28:55.805Z,32.45
2022-12-17T17:31:26.629Z,29.13
2022-12-17T17:33:58.213Z,27.48
2022-12-17T17:36:27.087Z,28.15
2022-12-17T17:38:55.000Z,29.08
2022-12-17T17:41:23.495Z,27.58
2022-12-17T17:44:17.543Z,31.05
2022-12-17T17:46:45.973Z,28.02
2022-12-17T17:49:13.572Z,33.60
2022-12-17T17:54:29.915Z,33.80
2022-12-17T17:56:57.449Z,33.42
2022-12-17T17:59:32.528Z,39.17
2022-12-17T18:02:02.212Z,35.28
2022-12-17T18:04:29.789Z,36.92
2022-12-17T18:09:45.082Z,38.50
2022-12-17T18:12:31.218Z,40.13
2022-12-17T18:15:16.809Z,34.30
2022-12-17T18:17:50.857Z,38.13
2022-12-17T18:20:18.851Z,30.25
2022-12-17T18:22:46.948Z,37.17
2022-12-17T18:25:15.040Z,37.83
2022-12-17T18:27:42.834Z,37.15
2022-12-17T18:30:10.493Z,37.97
2022-12-17T18:32:37.982Z,39.13
2022-12-17T18:35:06.199Z,41.10
2022-12-17T18:37:33.686Z,45.95
2022-12-17T18:40:01.076Z,44.83
2022-12-17T18:42:47.140Z,41.50
2022-12-17T18:45:14.578Z,40.17
2022-12-17T18:47:43.123Z,36.67
2022-12-17T18:50:11.113Z,33.42
2022-12-17T18:52:39.211Z,32.40
2022-12-17T18:55:10.323Z,35.47
2022-12-17T18:57:39.429Z,35.80
2022-12-17T19:00:08.001Z,38.92
2022-12-17T19:02:36.769Z,37.63
2022-12-17T19:05:04.778Z,44.85
2022-12-17T19:07:32.515Z,44.97
2022-12-17T19:10:00.028Z,51.10
2022-12-17T19:12:28.061Z,46.50
2022-12-17T19:14:55.605Z,46.28
2022-12-17T19:17:23.123Z,42.80
2022-12-17T19:19:50.864Z,35.05
2022-12-17T19:22:19.325Z,34.53
2022-12-17T19:24:46.914Z,33.53
2022-12-17T19:27:14.335Z,35.08
2022-12-17T19:29:47.647Z,42.92
2022-12-17T19:32:17.082Z,44.08
2022-12-17T19:34:45.055Z,43.17
2022-12-17T19:37:12.565Z,40.92
2022-12-17T19:39:40.610Z,38.28
2022-12-17T19:42:24.807Z,38.30
2022-12-17T19:44:53.531Z,36.92
2022-12-17T19:47:21.353Z,39.88
2022-12-17T19:49:49.016Z,43.10
2022-12-17T19:52:16.693Z,41.50
2022-12-17T19:54:44.024Z,39.25
2022-12-17T19:57:11.392Z,37.95
2022-12-17T19:59:38.800Z,35.85
2022-12-17T20:02:06.428Z,39.17
2022-12-17T20:04:34.096Z,43.67
2022-12-17T20:07:02.255Z,45.20
2022-12-17T20:09:29.671Z,39.45
2022-12-17T20:11:57.217Z,35.58
2022-12-17T20:14:26.801Z,38.25
2022-12-17T20:16:56.416Z,36.05
2022-12-17T20:19:25.421Z,35.70
2022-12-17T20:21:53.209Z,30.23
2022-12-17T20:24:23.546Z,30.05
2022-12-17T20:26:55.135Z,29.20
2022-12-17T20:29:23.883Z,30.42
2022-12-17T20:31:51.977Z,27.52
2022-12-17T20:34:21.000Z,31.05
2022-12-17T20:36:48.567Z,32.35
2022-12-17T20:39:18.017Z,32.05
2022-12-17T20:41:48.303Z,32.85
2022-12-17T20:44:16.421Z,34.00
2022-12-17T20:46:44.246Z,33.38
2022-12-17T20:49:13.866Z,32.78
2022-12-17T20:51:41.325Z,27.52
2022-12-17T20:54:08.965Z,32.45
2022-12-17T20:56:36.521Z,35.08
2022-12-17T20:59:05.906Z,33.45
2022-12-17T21:01:35.084Z,36.25
2022-12-17T21:04:03.239Z,35.78
2022-12-17T21:06:34.622Z,35.38
2022-12-17T21:09:02.236Z,35.17
2022-12-17T21:11:30.582Z,37.28
2022-12-17T21:13:58.626Z,35.50
2022-12-17T21:16:28.300Z,36.08
2022-12-17T21:18:59.164Z,32.90
2022-12-17T21:21:28.294Z,31.05
2022-12-17T21:23:56.152Z,29.90
2022-12-17T21:26:24.775Z,30.08
2022-12-17T21:28:53.158Z,29.33
2022-12-17T21:31:34.706Z,27.52
2022-12-17T21:34:04.036Z,30.80
2022-12-17T21:36:32.645Z,29.60
2022-12-17T21:39:00.536Z,31.38
2022-12-17T21:41:30.727Z,32.08
2022-12-17T21:44:00.175Z,35.58
2022-12-17T21:46:28.617Z,33.80
2022-12-17T21:48:57.403Z,35.88
2022-12-17T21:51:25.417Z,29.08
2022-12-17T21:53:54.435Z,31.48
2022-12-17T21:56:22.088Z,30.75
2022-12-17T21:58:50.251Z,28.35
2022-12-17T22:01:25.595Z,26.95
2022-12-17T22:03:54.513Z,26.98
2022-12-17T22:06:24.262Z,28.70
2022-12-17T22:09:05.323Z,26.38
2022-12-17T22:11:48.065Z,30.33
2022-12-17T22:14:20.888Z,28.77
2022-12-17T22:16:49.955Z,28.95
2022-12-17T22:19:21.979Z,27.55
2022-12-17T22:21:50.586Z,28.90
2022-12-17T22:24:19.408Z,28.20
2022-12-17T22:26:47.018Z,28.83
2022-12-17T22:29:37.842Z,28.38
2022-12-17T22:32:28.378Z,29.85
2022-12-17T22:35:12.319Z,24.25
2022-12-17T22:41:07.279Z,28.95
2022-12-17T22:44:30.217Z,27.27
2022-12-17T22:44:36.966Z,27.52
2022-12-17T22:46:19.795Z,28.70
2022-12-17T22:48:47.578Z,44.35
2022-12-17T22:51:21.054Z,30.10
2022-12-17T22:54:02.026Z,29.38
2022-12-17T22:56:51.687Z,30.17
2022-12-17T22:59:18.252Z,29.83
2022-12-17T23:01:46.012Z,29.08
2022-12-17T23:04:14.871Z,30.33
2022-12-17T23:06:45.240Z,32.38
2022-12-17T23:09:13.482Z,32.40
2022-12-17T23:11:41.015Z,31.58
2022-12-17T23:14:09.372Z,31.52
2022-12-17T23:16:38.492Z,32.65
2022-12-17T23:19:06.572Z,32.78
2022-12-17T23:21:34.354Z,32.67
2022-12-17T23:24:01.963Z,30.92
2022-12-17T23:26:34.828Z,32.85
2022-12-17T23:29:03.403Z,26.03
2022-12-17T23:31:33.241Z,32.85
2022-12-17T23:34:00.844Z,31.52
2022-12-17T23:36:28.533Z,32.08
2022-12-17T23:38:59.385Z,34.20
2022-12-17T23:41:28.318Z,31.02
2022-12-17T23:43:56.199Z,31.15
2022-12-17T23:46:24.496Z,26.80
2022-12-17T23:48:51.897Z,30.35
2022-12-17T23:51:20.709Z,32.20
2022-12-17T23:53:48.394Z,33.00
2022-12-17T23:56:20.995Z,33.95
2022-12-17T23:58:48.525Z,32.67
